Terminal Aerodrome Forecast
Issued by NWS Jackson, MS

Home | Current Version | Previous Version | Text Only | Print | Product List | Glossary On
Versions: 1 2 3 4 5 6 7 8 9 10 11
000
FTUS44 KJAN 120529
TAFGLH
TAF
KGLH 120529Z 1206/1306 32010KT P6SM SKC
     FM121400 33014G22KT P6SM SKC
     FM121700 33011KT P6SM SKC=

USA.gov is the U.S. government's official web portal to all federal, state and local government web resources and services.